METAR Data
IDs: Format: Raw Decoded Include TAF

Data at: 1503 UTC 16 Feb 2019

METAR for:KAOH (Lima/Allen Cnty, OH, US)
Text:KAOH 161453Z AUTO 01005KT 10SM OVC015 M06/M08 A3006 RMK AO2 SLP193 T10561083 51009
Temperature: -5.6°C ( 22°F)
Dewpoint: -8.3°C ( 17°F) [RH = 81%]
Pressure (altimeter):30.06 inches Hg (1018.0 mb) [Sea level pressure: 1019.3 mb]
Winds:from the N (10 degrees) at 6 MPH (5 knots; 2.6 m/s)
Visibility:10 or more sm (16+ km)
Ceiling:1500 feet AGL
Clouds: overcast cloud deck at 1500 feet AGL
QC Flag:automated observation with no human augmentation